createdAt,value
2019-06-01T00:00:24.222Z,18.93
2019-06-01T00:03:28.849Z,18.73
2019-06-01T00:06:33.333Z,17.60
2019-06-01T00:09:45.211Z,17.47
2019-06-01T00:12:49.665Z,17.57
2019-06-01T00:16:00.056Z,17.70
2019-06-01T00:19:12.266Z,17.03
2019-06-01T00:22:19.981Z,15.97
2019-06-01T00:25:24.647Z,16.43
2019-06-01T00:28:29.362Z,15.97
2019-06-01T00:31:34.036Z,15.03
2019-06-01T00:34:38.485Z,15.47
2019-06-01T00:37:50.254Z,16.03
2019-06-01T00:40:54.675Z,14.70
2019-06-01T00:43:59.345Z,14.60
2019-06-01T00:47:03.768Z,14.67
2019-06-01T00:50:08.341Z,13.60
2019-06-01T00:53:13.187Z,13.57
2019-06-01T00:56:20.412Z,13.87
2019-06-01T00:59:28.099Z,13.50
2019-06-01T01:02:32.383Z,13.27
2019-06-01T01:05:37.966Z,13.47
2019-06-01T01:08:42.297Z,13.57
2019-06-01T01:11:46.986Z,13.00
2019-06-01T01:14:51.374Z,12.47
2019-06-01T01:17:56.201Z,12.60
2019-06-01T01:21:01.026Z,13.67
2019-06-01T01:24:05.383Z,13.30
2019-06-01T01:27:09.987Z,13.60
2019-06-01T01:30:14.607Z,13.27
2019-06-01T01:33:18.917Z,13.90
2019-06-01T01:36:23.273Z,13.53
2019-06-01T01:39:27.925Z,13.27
2019-06-01T01:42:32.392Z,13.93
2019-06-01T01:45:36.790Z,13.83
2019-06-01T01:48:41.106Z,13.90
2019-06-01T01:51:45.579Z,13.97
2019-06-01T01:54:50.618Z,14.77
2019-06-01T01:57:55.475Z,14.37
2019-06-01T02:01:00.407Z,14.07
2019-06-01T02:04:06.127Z,14.00
2019-06-01T02:07:10.461Z,14.77
2019-06-01T02:10:15.014Z,14.67
2019-06-01T02:13:19.524Z,15.20
2019-06-01T02:16:23.817Z,14.93
2019-06-01T02:19:28.296Z,15.47
2019-06-01T02:22:32.581Z,15.03
2019-06-01T02:25:37.010Z,15.40
2019-06-01T02:28:41.426Z,14.87
2019-06-01T02:31:45.803Z,15.20
2019-06-01T02:34:50.108Z,15.60
2019-06-01T02:37:55.057Z,16.87
2019-06-01T02:41:01.206Z,15.47
2019-06-01T02:44:06.468Z,16.30
2019-06-01T02:47:11.933Z,16.60
2019-06-01T02:50:17.438Z,15.83
2019-06-01T02:53:21.712Z,16.03
2019-06-01T02:56:25.996Z,17.20
2019-06-01T02:59:30.321Z,16.70
2019-06-01T03:02:35.402Z,17.03
2019-06-01T03:05:42.762Z,18.23
2019-06-01T03:08:50.651Z,18.27
2019-06-01T03:11:59.375Z,18.40
2019-06-01T03:15:06.572Z,20.53
2019-06-01T03:18:13.640Z,19.90
2019-06-01T03:21:21.383Z,19.60
2019-06-01T03:24:26.288Z,19.43
2019-06-01T03:27:33.214Z,19.57
2019-06-01T03:30:45.400Z,18.83
2019-06-01T03:33:48.672Z,19.27
2019-06-01T03:36:56.112Z,19.40
2019-06-01T03:39:59.009Z,18.33
2019-06-01T03:43:04.277Z,19.13
2019-06-01T03:46:09.828Z,17.87
2019-06-01T03:49:14.189Z,17.60
2019-06-01T03:52:18.595Z,17.47
2019-06-01T03:55:22.881Z,18.57
2019-06-01T03:58:27.217Z,18.00
2019-06-01T04:01:31.589Z,17.37
2019-06-01T04:04:35.986Z,16.43
2019-06-01T04:07:41.393Z,17.13
2019-06-01T04:10:45.978Z,17.10
2019-06-01T04:13:50.293Z,17.83
2019-06-01T04:16:54.576Z,16.00
2019-06-01T04:19:58.865Z,16.80
2019-06-01T04:23:04.588Z,16.90
2019-06-01T04:26:10.171Z,16.60
2019-06-01T04:29:14.657Z,17.53
2019-06-01T04:32:18.966Z,16.00
2019-06-01T04:35:23.259Z,17.37
2019-06-01T04:38:27.537Z,14.80
2019-06-01T04:41:34.647Z,16.60
2019-06-01T04:44:39.035Z,15.67
2019-06-01T04:47:43.339Z,14.63
2019-06-01T04:50:47.659Z,14.67
2019-06-01T04:53:51.959Z,14.60
2019-06-01T04:56:56.323Z,14.77
2019-06-01T05:00:00.646Z,14.27
2019-06-01T05:03:07.252Z,14.93
2019-06-01T05:06:11.332Z,14.10
2019-06-01T05:09:15.928Z,13.43
2019-06-01T05:12:20.232Z,13.77
2019-06-01T05:15:24.592Z,13.33
2019-06-01T05:18:28.891Z,12.37
2019-06-01T05:21:33.186Z,13.73
2019-06-01T05:24:37.474Z,12.87
2019-06-01T05:27:41.788Z,13.77
2019-06-01T05:30:46.095Z,12.97
2019-06-01T05:33:50.443Z,11.90
2019-06-01T05:36:54.745Z,11.70
2019-06-01T05:39:59.141Z,11.57
2019-06-01T05:43:03.445Z,12.03
2019-06-01T05:46:07.720Z,11.80
2019-06-01T05:49:13.243Z,12.50
2019-06-01T05:52:19.319Z,12.10
2019-06-01T05:55:23.725Z,12.63
2019-06-01T05:58:29.384Z,13.50
2019-06-01T06:01:33.884Z,12.40
2019-06-01T06:04:39.853Z,12.80
2019-06-01T06:07:44.131Z,12.80
2019-06-01T06:10:48.430Z,12.97
2019-06-01T06:13:52.720Z,12.63
2019-06-01T06:16:57.075Z,12.13
2019-06-01T06:20:01.486Z,12.07
2019-06-01T06:23:05.787Z,12.87
2019-06-01T06:26:10.128Z,12.17
2019-06-01T06:29:14.772Z,11.90
2019-06-01T06:32:19.382Z,12.10
2019-06-01T06:35:23.967Z,13.07
2019-06-01T06:38:28.349Z,12.07
2019-06-01T06:41:32.647Z,12.73
2019-06-01T06:44:37.049Z,12.30
2019-06-01T06:47:41.336Z,12.83
2019-06-01T06:50:45.637Z,11.37
2019-06-01T06:53:50.061Z,10.33
2019-06-01T06:56:54.367Z,10.87
2019-06-01T06:59:58.636Z,10.47
2019-06-01T07:03:02.976Z,10.53
2019-06-01T07:06:07.423Z,9.73
2019-06-01T07:09:13.277Z,10.23
2019-06-01T07:12:19.262Z,8.77
2019-06-01T07:15:23.652Z,9.00
2019-06-01T07:18:27.982Z,8.97
2019-06-01T07:21:32.269Z,8.97
2019-06-01T07:24:38.364Z,8.17
2019-06-01T07:27:42.686Z,8.00
2019-06-01T07:30:50.351Z,8.13
2019-06-01T07:33:53.175Z,7.30
2019-06-01T07:36:57.565Z,7.77
2019-06-01T07:40:01.895Z,6.80
2019-06-01T07:43:06.199Z,7.43
2019-06-01T07:46:10.484Z,7.13
2019-06-01T07:49:14.860Z,6.83
2019-06-01T07:52:20.217Z,7.40
2019-06-01T07:55:25.507Z,7.67
2019-06-01T07:58:31.417Z,7.97
2019-06-01T08:01:35.775Z,8.00
2019-06-01T08:04:53.253Z,8.53
2019-06-01T08:07:50.072Z,8.40
2019-06-01T08:10:54.374Z,7.70
2019-06-01T08:13:58.665Z,7.97
2019-06-01T08:17:02.959Z,7.77
2019-06-01T08:20:09.102Z,7.80
2019-06-01T08:23:13.399Z,7.37
2019-06-01T08:26:20.141Z,8.37
2019-06-01T08:29:24.740Z,7.40
2019-06-01T08:32:29.227Z,7.80
2019-06-01T08:35:33.525Z,7.63
2019-06-01T08:38:37.809Z,7.60
2019-06-01T08:41:42.198Z,8.10
2019-06-01T08:44:46.632Z,8.53
2019-06-01T08:47:50.951Z,7.43
2019-06-01T08:50:55.330Z,7.73
2019-06-01T08:53:59.643Z,8.10
2019-06-01T08:57:03.958Z,7.07
2019-06-01T09:00:09.474Z,7.90
2019-06-01T09:03:13.726Z,8.07
2019-06-01T09:06:17.999Z,7.77
2019-06-01T09:09:22.309Z,8.37
2019-06-01T09:12:27.278Z,8.20
2019-06-01T09:15:35.594Z,8.33
2019-06-01T09:18:40.143Z,8.40
2019-06-01T09:21:44.576Z,8.90
2019-06-01T09:24:53.131Z,9.17
2019-06-01T09:27:54.962Z,8.90
2019-06-01T09:31:00.319Z,7.70
2019-06-01T09:34:04.592Z,8.13
2019-06-01T09:37:08.872Z,8.30
2019-06-01T09:40:13.545Z,6.83
2019-06-01T09:43:17.865Z,7.83
2019-06-01T09:46:22.653Z,6.90
2019-06-01T09:49:27.338Z,7.13
2019-06-01T09:52:31.782Z,7.43
2019-06-01T09:55:36.450Z,6.50
2019-06-01T09:58:42.014Z,6.77
2019-06-01T10:01:46.394Z,7.17
2019-06-01T10:04:50.704Z,6.60
2019-06-01T10:07:54.990Z,6.83
2019-06-01T10:10:59.573Z,6.63
2019-06-01T10:14:03.936Z,6.57
2019-06-01T10:17:08.233Z,6.20
2019-06-01T10:20:12.605Z,5.13
2019-06-01T10:23:16.878Z,4.83
2019-06-01T10:26:21.210Z,5.70
2019-06-01T10:29:25.572Z,5.13
2019-06-01T10:32:32.489Z,5.80
2019-06-01T10:35:37.069Z,5.47
2019-06-01T10:38:41.519Z,6.17
2019-06-01T10:41:45.924Z,5.80
2019-06-01T10:44:50.201Z,5.60
2019-06-01T10:47:54.571Z,5.77
2019-06-01T10:50:58.858Z,5.43
2019-06-01T10:54:03.459Z,4.40
2019-06-01T10:57:07.738Z,5.83
2019-06-01T11:00:12.940Z,5.37
2019-06-01T11:03:17.213Z,5.70
2019-06-01T11:06:36.215Z,5.40
2019-06-01T11:09:28.753Z,4.93
2019-06-01T11:12:33.037Z,4.30
2019-06-01T11:15:37.297Z,4.30
2019-06-01T11:18:41.844Z,4.20
2019-06-01T11:21:46.215Z,3.73
2019-06-01T11:24:50.496Z,3.93
2019-06-01T11:27:54.791Z,3.90
2019-06-01T11:30:59.104Z,4.07
2019-06-01T11:34:03.361Z,3.83
2019-06-01T11:37:07.749Z,3.70
2019-06-01T11:40:12.155Z,4.10
2019-06-01T11:43:16.548Z,3.90
2019-06-01T11:46:20.847Z,4.53
2019-06-01T11:49:25.130Z,3.50
2019-06-01T11:52:29.525Z,3.63
2019-06-01T11:55:35.054Z,3.80
2019-06-01T11:58:39.610Z,3.70
2019-06-01T12:01:44.187Z,4.00
2019-06-01T12:04:48.680Z,4.37
2019-06-01T12:07:52.964Z,3.37
2019-06-01T12:10:57.272Z,3.40
2019-06-01T12:14:01.551Z,3.20
2019-06-01T12:17:05.828Z,2.90
2019-06-01T12:20:10.736Z,2.90
2019-06-01T12:23:15.013Z,2.93
2019-06-01T12:26:19.418Z,3.33
2019-06-01T12:29:23.730Z,3.40
2019-06-01T12:32:29.789Z,3.07
2019-06-01T12:35:34.089Z,3.50
2019-06-01T12:38:52.354Z,3.17
2019-06-01T12:41:56.658Z,3.17
2019-06-01T12:45:00.978Z,3.40
2019-06-01T12:48:05.393Z,2.70
2019-06-01T12:51:09.684Z,2.87
2019-06-01T12:54:13.939Z,2.70
2019-06-01T12:57:18.325Z,2.40
2019-06-01T13:00:22.606Z,3.07
2019-06-01T13:03:26.900Z,2.70
2019-06-01T13:06:31.181Z,2.27
2019-06-01T13:09:35.480Z,2.20
2019-06-01T13:12:41.005Z,2.53
2019-06-01T13:15:45.383Z,2.53
2019-06-01T13:18:49.690Z,2.27
2019-06-01T13:21:53.973Z,2.70
2019-06-01T13:24:58.287Z,2.40
2019-06-01T13:28:02.559Z,3.00
2019-06-01T13:31:07.092Z,2.20
2019-06-01T13:34:12.368Z,2.33
2019-06-01T13:37:16.717Z,2.50
2019-06-01T13:40:21.026Z,2.20
2019-06-01T13:43:25.328Z,1.80
2019-06-01T13:46:31.452Z,2.00
2019-06-01T13:49:35.864Z,2.07
2019-06-01T13:52:40.163Z,2.00
2019-06-01T13:55:44.440Z,1.50
2019-06-01T13:58:48.802Z,1.97
2019-06-01T14:01:53.291Z,1.90
2019-06-01T14:04:57.531Z,1.77
2019-06-01T14:08:01.818Z,2.03
2019-06-01T14:11:06.109Z,1.80
2019-06-01T14:14:10.384Z,1.90
2019-06-01T14:17:14.656Z,1.60
2019-06-01T14:20:18.933Z,1.80
2019-06-01T14:23:23.634Z,1.97
2019-06-01T14:26:28.011Z,2.20
2019-06-01T14:29:32.278Z,1.87
2019-06-01T14:32:36.582Z,1.50
2019-06-01T14:35:40.875Z,1.70
2019-06-01T14:38:47.788Z,1.80
2019-06-01T14:41:51.224Z,1.80
2019-06-01T14:44:55.997Z,1.90
2019-06-01T14:48:00.243Z,1.70
2019-06-01T14:51:04.739Z,1.90
2019-06-01T14:54:09.030Z,1.70
2019-06-01T14:57:13.422Z,1.90
2019-06-01T15:00:17.918Z,2.10
2019-06-01T15:03:22.232Z,1.90
2019-06-01T15:06:26.555Z,2.30
2019-06-01T15:09:30.842Z,2.03
2019-06-01T15:12:35.180Z,2.10
2019-06-01T15:15:39.482Z,2.10
2019-06-01T15:18:43.858Z,2.40
2019-06-01T15:21:49.938Z,1.93
2019-06-01T15:24:56.461Z,2.07
2019-06-01T15:28:00.803Z,2.17
2019-06-01T15:31:05.097Z,2.63
2019-06-01T15:34:09.399Z,2.60
2019-06-01T15:37:13.829Z,2.30
2019-06-01T15:40:18.389Z,2.63
2019-06-01T15:43:22.702Z,2.37
2019-06-01T15:46:28.145Z,2.10
2019-06-01T15:49:32.429Z,2.27
2019-06-01T15:52:36.755Z,2.20
2019-06-01T15:55:41.062Z,2.20
2019-06-01T15:58:52.992Z,2.20
2019-06-01T16:01:52.880Z,2.33
2019-06-01T16:04:57.312Z,2.53
2019-06-01T16:08:01.773Z,2.20
2019-06-01T16:11:06.711Z,2.70
2019-06-01T16:14:11.140Z,2.17
2019-06-01T16:17:15.441Z,2.07
2019-06-01T16:20:19.948Z,2.20
2019-06-01T16:23:24.295Z,2.10
2019-06-01T16:26:28.674Z,2.33
2019-06-01T16:29:33.011Z,2.10
2019-06-01T16:32:39.548Z,2.10
2019-06-01T16:35:43.441Z,2.40
2019-06-01T16:38:47.729Z,2.60
2019-06-01T16:41:52.043Z,2.43
2019-06-01T16:44:57.433Z,2.27
2019-06-01T16:48:01.781Z,2.23
2019-06-01T16:51:07.607Z,1.80
2019-06-01T16:54:13.106Z,2.13
2019-06-01T16:57:17.479Z,2.43
2019-06-01T17:00:22.213Z,2.30
2019-06-01T17:03:27.727Z,2.13
2019-06-01T17:06:32.427Z,2.33
2019-06-01T17:09:36.706Z,1.90
2019-06-01T17:12:43.633Z,2.43
2019-06-01T17:15:47.052Z,2.27
2019-06-01T17:18:51.362Z,2.20
2019-06-01T17:21:55.782Z,1.97
2019-06-01T17:25:00.092Z,1.90
2019-06-01T17:28:05.265Z,2.17
2019-06-01T17:31:09.632Z,2.30
2019-06-01T17:34:15.756Z,2.30
2019-06-01T17:37:20.064Z,1.83
2019-06-01T17:40:36.768Z,2.03
2019-06-01T17:43:30.501Z,2.33
2019-06-01T17:46:43.339Z,2.20
2019-06-01T17:49:40.887Z,1.90
2019-06-01T17:52:45.205Z,2.10
2019-06-01T17:55:49.485Z,2.33
2019-06-01T17:58:53.853Z,2.20
2019-06-01T18:01:58.155Z,2.30
2019-06-01T18:05:03.945Z,2.53
2019-06-01T18:08:08.544Z,2.70
2019-06-01T18:11:12.991Z,2.70
2019-06-01T18:14:17.518Z,2.60
2019-06-01T18:17:21.807Z,2.63
2019-06-01T18:20:26.175Z,2.13
2019-06-01T18:23:30.623Z,2.33
2019-06-01T18:26:35.014Z,2.50
2019-06-01T18:29:47.356Z,2.80
2019-06-01T18:32:45.408Z,2.57
2019-06-01T18:35:49.820Z,2.60
2019-06-01T18:38:54.135Z,2.77
2019-06-01T18:41:58.575Z,2.60
2019-06-01T18:45:05.654Z,2.87
2019-06-01T18:48:10.377Z,3.03
2019-06-01T18:51:14.680Z,3.20
2019-06-01T18:54:19.007Z,2.90
2019-06-01T18:57:23.568Z,3.27
2019-06-01T19:00:28.038Z,2.60
2019-06-01T19:03:32.348Z,2.80
2019-06-01T19:06:36.657Z,2.80
2019-06-01T19:09:40.992Z,2.77
2019-06-01T19:12:45.302Z,2.60
2019-06-01T19:15:51.102Z,3.00
2019-06-01T19:18:55.404Z,2.73
2019-06-01T19:22:06.589Z,2.73
2019-06-01T19:25:19.398Z,2.90
2019-06-01T19:28:29.792Z,2.33
2019-06-01T19:31:41.040Z,2.63
2019-06-01T19:34:52.039Z,2.47
2019-06-01T19:38:02.044Z,2.63
2019-06-01T19:41:11.324Z,2.70
2019-06-01T19:44:18.932Z,2.33
2019-06-01T19:47:23.562Z,2.20
2019-06-01T19:50:30.029Z,2.47
2019-06-01T19:53:34.480Z,2.37
2019-06-01T19:56:39.065Z,2.53
2019-06-01T19:59:47.483Z,2.60
2019-06-01T20:02:52.644Z,2.53
2019-06-01T20:05:56.979Z,2.60
2019-06-01T20:09:01.439Z,2.50
2019-06-01T20:12:11.578Z,2.87
2019-06-01T20:15:13.315Z,2.60
2019-06-01T20:18:19.078Z,2.97
2019-06-01T20:21:23.671Z,2.87
2019-06-01T20:24:28.148Z,3.17
2019-06-01T20:27:33.637Z,3.03
2019-06-01T20:30:38.078Z,2.37
2019-06-01T20:33:42.424Z,2.53
2019-06-01T20:36:46.885Z,3.00
2019-06-01T20:39:51.261Z,2.43
2019-06-01T20:42:55.711Z,2.47
2019-06-01T20:46:00.011Z,2.70
2019-06-01T20:49:04.503Z,3.10
2019-06-01T20:52:08.852Z,3.10
2019-06-01T20:55:15.178Z,2.90
2019-06-01T20:58:22.060Z,2.87
2019-06-01T21:01:25.900Z,3.17
2019-06-01T21:04:30.200Z,3.20
2019-06-01T21:07:35.994Z,3.27
2019-06-01T21:10:40.319Z,3.23
2019-06-01T21:13:44.677Z,3.00
2019-06-01T21:16:51.102Z,3.33
2019-06-01T21:19:55.526Z,3.30
2019-06-01T21:23:00.969Z,3.93
2019-06-01T21:26:05.544Z,3.90
2019-06-01T21:29:11.669Z,3.90
2019-06-01T21:32:17.309Z,3.80
2019-06-01T21:35:23.456Z,3.93
2019-06-01T21:38:27.943Z,3.80
2019-06-01T21:41:32.325Z,4.17
2019-06-01T21:44:36.625Z,4.57
2019-06-01T21:47:40.924Z,3.83
2019-06-01T21:50:45.235Z,7.17
2019-06-01T21:53:51.008Z,6.80
2019-06-01T21:56:55.302Z,5.33
2019-06-01T21:59:59.600Z,5.63
2019-06-01T22:03:03.961Z,6.20
2019-06-01T22:06:08.271Z,5.23
2019-06-01T22:09:12.610Z,4.63
2019-06-01T22:12:19.128Z,5.10
2019-06-01T22:15:23.870Z,4.73
2019-06-01T22:18:28.285Z,4.33
2019-06-01T22:21:32.690Z,4.53
2019-06-01T22:24:37.018Z,4.60
2019-06-01T22:27:41.366Z,4.83
2019-06-01T22:30:45.769Z,4.57
2019-06-01T22:33:50.076Z,4.87
2019-06-01T22:36:54.471Z,4.97
2019-06-01T22:39:58.773Z,4.90
2019-06-01T22:43:03.087Z,4.93
2019-06-01T22:46:09.235Z,4.93
2019-06-01T22:49:13.553Z,5.07
2019-06-01T22:52:17.852Z,5.90
2019-06-01T22:55:24.358Z,5.57
2019-06-01T22:58:29.656Z,4.93
2019-06-01T23:01:34.151Z,6.03
2019-06-01T23:04:38.472Z,5.60
2019-06-01T23:07:42.770Z,5.50
2019-06-01T23:10:47.063Z,5.53
2019-06-01T23:13:53.728Z,5.90
2019-06-01T23:16:57.343Z,5.50
2019-06-01T23:20:01.639Z,5.73
2019-06-01T23:23:05.948Z,5.60
2019-06-01T23:26:10.248Z,5.77
2019-06-01T23:29:14.588Z,6.53
2019-06-01T23:32:18.885Z,6.07
2019-06-01T23:35:24.326Z,6.27
2019-06-01T23:38:28.792Z,6.30
2019-06-01T23:41:33.104Z,7.00
2019-06-01T23:44:38.866Z,6.47
2019-06-01T23:47:43.239Z,6.40
2019-06-01T23:50:47.632Z,6.80
2019-06-01T23:53:51.949Z,6.00
2019-06-01T23:56:56.254Z,6.47
